sensor_id;sensor_type;location;lat;lon;timestamp;temperature;humidity
22706;DHT22;11520;51.198;4.468;2022-10-16T00:02:24;13.90;99.90
22706;DHT22;11520;51.198;4.468;2022-10-16T00:04:49;13.90;99.90
22706;DHT22;11520;51.198;4.468;2022-10-16T00:07:17;13.90;99.90
22706;DHT22;11520;51.198;4.468;2022-10-16T00:09:45;13.90;99.90
22706;DHT22;11520;51.198;4.468;2022-10-16T00:12:12;13.80;99.90
22706;DHT22;11520;51.198;4.468;2022-10-16T00:14:40;13.80;99.90
22706;DHT22;11520;51.198;4.468;2022-10-16T00:17:08;13.80;99.90
22706;DHT22;11520;51.198;4.468;2022-10-16T00:19:33;13.90;99.90
22706;DHT22;11520;51.198;4.468;2022-10-16T00:21:59;13.90;99.90
22706;DHT22;11520;51.198;4.468;2022-10-16T00:24:24;13.90;99.90
22706;DHT22;11520;51.198;4.468;2022-10-16T00:26:50;13.90;99.90
22706;DHT22;11520;51.198;4.468;2022-10-16T00:29:17;14.00;99.90
22706;DHT22;11520;51.198;4.468;2022-10-16T00:31:42;13.90;99.90
22706;DHT22;11520;51.198;4.468;2022-10-16T00:34:08;13.80;99.90
22706;DHT22;11520;51.198;4.468;2022-10-16T00:36:35;13.90;99.90
22706;DHT22;11520;51.198;4.468;2022-10-16T00:39:00;13.80;99.90
22706;DHT22;11520;51.198;4.468;2022-10-16T00:41:27;13.90;99.90
22706;DHT22;11520;51.198;4.468;2022-10-16T00:43:57;13.80;99.90
22706;DHT22;11520;51.198;4.468;2022-10-16T00:46:38;13.90;99.90
22706;DHT22;11520;51.198;4.468;2022-10-16T00:49:16;13.90;99.90
22706;DHT22;11520;51.198;4.468;2022-10-16T00:51:49;13.80;99.90
22706;DHT22;11520;51.198;4.468;2022-10-16T00:54:24;13.80;99.90
22706;DHT22;11520;51.198;4.468;2022-10-16T00:56:50;13.70;99.90
22706;DHT22;11520;51.198;4.468;2022-10-16T00:59:28;13.70;99.90
22706;DHT22;11520;51.198;4.468;2022-10-16T01:01:55;13.70;99.90
22706;DHT22;11520;51.198;4.468;2022-10-16T01:04:21;13.60;99.90
22706;DHT22;11520;51.198;4.468;2022-10-16T01:12:58;13.70;99.90
22706;DHT22;11520;51.198;4.468;2022-10-16T01:15:36;13.60;99.90
22706;DHT22;11520;51.198;4.468;2022-10-16T01:18:28;13.60;99.90
22706;DHT22;11520;51.198;4.468;2022-10-16T01:21:04;13.60;99.90
22706;DHT22;11520;51.198;4.468;2022-10-16T01:23:56;13.60;99.90
22706;DHT22;11520;51.198;4.468;2022-10-16T01:32:42;13.60;99.90
22706;DHT22;11520;51.198;4.468;2022-10-16T01:35:20;13.50;99.90
22706;DHT22;11520;51.198;4.468;2022-10-16T01:37:59;13.60;99.90
22706;DHT22;11520;51.198;4.468;2022-10-16T01:40:27;13.50;99.90
22706;DHT22;11520;51.198;4.468;2022-10-16T01:43:04;13.60;99.90
22706;DHT22;11520;51.198;4.468;2022-10-16T01:45:33;13.50;99.90
22706;DHT22;11520;51.198;4.468;2022-10-16T01:48:02;13.60;99.90
22706;DHT22;11520;51.198;4.468;2022-10-16T01:50:34;13.50;99.90
22706;DHT22;11520;51.198;4.468;2022-10-16T01:53:04;13.40;99.90
22706;DHT22;11520;51.198;4.468;2022-10-16T01:55:39;13.40;99.90
22706;DHT22;11520;51.198;4.468;2022-10-16T01:58:09;13.40;99.90
22706;DHT22;11520;51.198;4.468;2022-10-16T02:00:39;13.40;99.90
22706;DHT22;11520;51.198;4.468;2022-10-16T02:03:06;13.40;99.90
22706;DHT22;11520;51.198;4.468;2022-10-16T02:05:45;13.30;99.90
22706;DHT22;11520;51.198;4.468;2022-10-16T02:08:11;13.30;99.90
22706;DHT22;11520;51.198;4.468;2022-10-16T02:10:38;13.30;99.90
22706;DHT22;11520;51.198;4.468;2022-10-16T02:13:13;13.30;99.90
22706;DHT22;11520;51.198;4.468;2022-10-16T02:15:41;13.30;99.90
22706;DHT22;11520;51.198;4.468;2022-10-16T02:18:07;13.30;99.90
22706;DHT22;11520;51.198;4.468;2022-10-16T02:21:28;13.30;99.90
22706;DHT22;11520;51.198;4.468;2022-10-16T02:23:45;13.30;99.90
22706;DHT22;11520;51.198;4.468;2022-10-16T02:26:16;13.30;99.90
22706;DHT22;11520;51.198;4.468;2022-10-16T02:28:51;13.30;99.90
22706;DHT22;11520;51.198;4.468;2022-10-16T02:31:22;13.20;99.90
22706;DHT22;11520;51.198;4.468;2022-10-16T02:33:53;13.30;99.90
22706;DHT22;11520;51.198;4.468;2022-10-16T02:36:20;13.20;99.90
22706;DHT22;11520;51.198;4.468;2022-10-16T02:38:46;13.20;99.90
22706;DHT22;11520;51.198;4.468;2022-10-16T02:41:15;13.20;99.90
22706;DHT22;11520;51.198;4.468;2022-10-16T02:43:40;13.10;99.90
22706;DHT22;11520;51.198;4.468;2022-10-16T02:46:06;13.10;99.90
22706;DHT22;11520;51.198;4.468;2022-10-16T02:48:32;13.10;99.90
22706;DHT22;11520;51.198;4.468;2022-10-16T02:50:58;13.10;99.90
22706;DHT22;11520;51.198;4.468;2022-10-16T02:53:24;13.10;99.90
22706;DHT22;11520;51.198;4.468;2022-10-16T02:55:50;13.00;99.90
22706;DHT22;11520;51.198;4.468;2022-10-16T02:58:16;13.10;99.90
22706;DHT22;11520;51.198;4.468;2022-10-16T03:00:43;13.10;99.90
22706;DHT22;11520;51.198;4.468;2022-10-16T03:03:09;13.10;99.90
22706;DHT22;11520;51.198;4.468;2022-10-16T03:05:34;13.10;99.90
22706;DHT22;11520;51.198;4.468;2022-10-16T03:08:00;13.10;99.90
22706;DHT22;11520;51.198;4.468;2022-10-16T03:10:26;13.10;99.90
22706;DHT22;11520;51.198;4.468;2022-10-16T03:12:53;13.10;99.90
22706;DHT22;11520;51.198;4.468;2022-10-16T03:15:22;13.10;99.90
22706;DHT22;11520;51.198;4.468;2022-10-16T03:17:48;13.10;99.90
22706;DHT22;11520;51.198;4.468;2022-10-16T03:20:14;13.20;99.90
22706;DHT22;11520;51.198;4.468;2022-10-16T03:22:40;13.20;99.90
22706;DHT22;11520;51.198;4.468;2022-10-16T03:25:05;13.20;99.90
22706;DHT22;11520;51.198;4.468;2022-10-16T03:27:31;13.20;99.90
22706;DHT22;11520;51.198;4.468;2022-10-16T03:29:58;13.20;99.90
22706;DHT22;11520;51.198;4.468;2022-10-16T03:32:23;13.20;99.90
22706;DHT22;11520;51.198;4.468;2022-10-16T03:34:50;13.20;99.90
22706;DHT22;11520;51.198;4.468;2022-10-16T03:37:17;13.20;99.90
22706;DHT22;11520;51.198;4.468;2022-10-16T03:39:43;13.20;99.90
22706;DHT22;11520;51.198;4.468;2022-10-16T03:42:09;13.20;99.90
22706;DHT22;11520;51.198;4.468;2022-10-16T03:44:34;13.20;99.90
22706;DHT22;11520;51.198;4.468;2022-10-16T03:47:00;13.20;99.90
22706;DHT22;11520;51.198;4.468;2022-10-16T03:49:26;13.20;99.90
22706;DHT22;11520;51.198;4.468;2022-10-16T03:51:53;13.20;99.90
22706;DHT22;11520;51.198;4.468;2022-10-16T03:54:20;13.20;99.90
22706;DHT22;11520;51.198;4.468;2022-10-16T03:56:47;13.20;99.90
22706;DHT22;11520;51.198;4.468;2022-10-16T03:59:14;13.20;99.90
22706;DHT22;11520;51.198;4.468;2022-10-16T04:01:42;13.10;99.90
22706;DHT22;11520;51.198;4.468;2022-10-16T04:04:08;13.10;99.90
22706;DHT22;11520;51.198;4.468;2022-10-16T04:06:34;13.20;99.90
22706;DHT22;11520;51.198;4.468;2022-10-16T04:08:59;13.20;99.90
22706;DHT22;11520;51.198;4.468;2022-10-16T04:11:25;13.20;99.90
22706;DHT22;11520;51.198;4.468;2022-10-16T04:13:50;13.20;99.90
22706;DHT22;11520;51.198;4.468;2022-10-16T04:16:16;13.20;99.90
22706;DHT22;11520;51.198;4.468;2022-10-16T04:18:41;13.20;99.90
22706;DHT22;11520;51.198;4.468;2022-10-16T04:21:09;13.30;99.90
22706;DHT22;11520;51.198;4.468;2022-10-16T04:23:35;13.20;99.90
22706;DHT22;11520;51.198;4.468;2022-10-16T04:26:02;13.20;99.90
22706;DHT22;11520;51.198;4.468;2022-10-16T04:28:32;13.20;99.90
22706;DHT22;11520;51.198;4.468;2022-10-16T04:30:59;13.20;99.90
22706;DHT22;11520;51.198;4.468;2022-10-16T04:33:25;13.20;99.90
22706;DHT22;11520;51.198;4.468;2022-10-16T04:35:57;13.20;99.90
22706;DHT22;11520;51.198;4.468;2022-10-16T04:38:25;13.20;99.90
22706;DHT22;11520;51.198;4.468;2022-10-16T04:40:52;13.10;99.90
22706;DHT22;11520;51.198;4.468;2022-10-16T04:43:18;13.10;99.90
22706;DHT22;11520;51.198;4.468;2022-10-16T04:45:43;13.10;99.90
22706;DHT22;11520;51.198;4.468;2022-10-16T04:48:10;13.10;99.90
22706;DHT22;11520;51.198;4.468;2022-10-16T04:50:36;13.10;99.90
22706;DHT22;11520;51.198;4.468;2022-10-16T04:53:01;13.10;99.90
22706;DHT22;11520;51.198;4.468;2022-10-16T04:55:28;13.10;99.90
22706;DHT22;11520;51.198;4.468;2022-10-16T04:57:54;13.10;99.90
22706;DHT22;11520;51.198;4.468;2022-10-16T05:00:19;13.10;99.90
22706;DHT22;11520;51.198;4.468;2022-10-16T05:02:45;13.00;99.90
22706;DHT22;11520;51.198;4.468;2022-10-16T05:05:11;13.00;99.90
22706;DHT22;11520;51.198;4.468;2022-10-16T05:07:37;13.00;99.90
22706;DHT22;11520;51.198;4.468;2022-10-16T05:10:04;12.90;99.90
22706;DHT22;11520;51.198;4.468;2022-10-16T05:12:31;12.90;99.90
22706;DHT22;11520;51.198;4.468;2022-10-16T05:14:56;12.90;99.90
22706;DHT22;11520;51.198;4.468;2022-10-16T05:17:24;12.80;99.90
22706;DHT22;11520;51.198;4.468;2022-10-16T05:19:50;12.80;99.90
22706;DHT22;11520;51.198;4.468;2022-10-16T05:22:16;12.80;99.90
22706;DHT22;11520;51.198;4.468;2022-10-16T05:24:43;12.80;99.90
22706;DHT22;11520;51.198;4.468;2022-10-16T05:27:10;12.80;99.90
22706;DHT22;11520;51.198;4.468;2022-10-16T05:29:36;12.80;99.90
22706;DHT22;11520;51.198;4.468;2022-10-16T05:32:08;12.80;99.90
22706;DHT22;11520;51.198;4.468;2022-10-16T05:34:44;12.90;99.90
22706;DHT22;11520;51.198;4.468;2022-10-16T05:37:10;12.80;99.90
22706;DHT22;11520;51.198;4.468;2022-10-16T05:39:37;12.70;99.90
22706;DHT22;11520;51.198;4.468;2022-10-16T05:42:05;12.70;99.90
22706;DHT22;11520;51.198;4.468;2022-10-16T05:44:33;12.70;99.90
22706;DHT22;11520;51.198;4.468;2022-10-16T05:47:00;12.70;99.90
22706;DHT22;11520;51.198;4.468;2022-10-16T05:49:25;12.60;99.90
22706;DHT22;11520;51.198;4.468;2022-10-16T05:51:53;12.60;99.90
22706;DHT22;11520;51.198;4.468;2022-10-16T05:54:19;12.60;99.90
22706;DHT22;11520;51.198;4.468;2022-10-16T05:56:45;12.60;99.90
22706;DHT22;11520;51.198;4.468;2022-10-16T05:59:13;12.70;99.90
22706;DHT22;11520;51.198;4.468;2022-10-16T06:01:38;12.70;99.90
22706;DHT22;11520;51.198;4.468;2022-10-16T06:04:14;12.70;99.90
22706;DHT22;11520;51.198;4.468;2022-10-16T06:06:52;12.80;99.90
22706;DHT22;11520;51.198;4.468;2022-10-16T06:09:21;12.80;99.90
22706;DHT22;11520;51.198;4.468;2022-10-16T06:11:50;12.80;99.90
22706;DHT22;11520;51.198;4.468;2022-10-16T06:14:16;12.90;99.90
22706;DHT22;11520;51.198;4.468;2022-10-16T06:19:17;12.90;99.90
22706;DHT22;11520;51.198;4.468;2022-10-16T06:21:48;12.90;99.90
22706;DHT22;11520;51.198;4.468;2022-10-16T06:24:14;13.00;99.90
22706;DHT22;11520;51.198;4.468;2022-10-16T06:26:57;13.10;99.90
22706;DHT22;11520;51.198;4.468;2022-10-16T06:29:27;13.10;99.90
22706;DHT22;11520;51.198;4.468;2022-10-16T06:31:56;13.10;99.90
22706;DHT22;11520;51.198;4.468;2022-10-16T06:34:22;13.20;99.90
22706;DHT22;11520;51.198;4.468;2022-10-16T06:36:53;13.20;99.90
22706;DHT22;11520;51.198;4.468;2022-10-16T06:39:19;13.30;99.90
22706;DHT22;11520;51.198;4.468;2022-10-16T06:41:48;13.30;99.90
22706;DHT22;11520;51.198;4.468;2022-10-16T06:44:14;13.40;99.90
22706;DHT22;11520;51.198;4.468;2022-10-16T06:46:40;13.30;99.90
22706;DHT22;11520;51.198;4.468;2022-10-16T06:49:06;13.40;99.90
22706;DHT22;11520;51.198;4.468;2022-10-16T06:51:33;13.30;99.90
22706;DHT22;11520;51.198;4.468;2022-10-16T06:54:08;13.30;99.90
22706;DHT22;11520;51.198;4.468;2022-10-16T06:56:34;13.30;99.90
22706;DHT22;11520;51.198;4.468;2022-10-16T06:59:01;13.30;99.90
22706;DHT22;11520;51.198;4.468;2022-10-16T07:01:27;13.30;99.90
22706;DHT22;11520;51.198;4.468;2022-10-16T07:03:53;13.30;99.90
22706;DHT22;11520;51.198;4.468;2022-10-16T07:06:21;13.30;99.90
22706;DHT22;11520;51.198;4.468;2022-10-16T07:08:48;13.30;99.90
22706;DHT22;11520;51.198;4.468;2022-10-16T07:11:20;13.40;99.90
22706;DHT22;11520;51.198;4.468;2022-10-16T07:13:46;13.50;99.90
22706;DHT22;11520;51.198;4.468;2022-10-16T07:16:17;13.50;99.90
22706;DHT22;11520;51.198;4.468;2022-10-16T07:18:46;13.50;99.90
22706;DHT22;11520;51.198;4.468;2022-10-16T07:21:20;13.50;99.90
22706;DHT22;11520;51.198;4.468;2022-10-16T07:23:58;13.60;99.90
22706;DHT22;11520;51.198;4.468;2022-10-16T07:26:35;13.60;99.90
22706;DHT22;11520;51.198;4.468;2022-10-16T07:29:02;13.70;99.90
22706;DHT22;11520;51.198;4.468;2022-10-16T07:31:32;13.80;99.90
22706;DHT22;11520;51.198;4.468;2022-10-16T07:34:00;13.90;99.90
22706;DHT22;11520;51.198;4.468;2022-10-16T07:36:26;14.20;99.90
22706;DHT22;11520;51.198;4.468;2022-10-16T07:38:53;14.70;99.90
22706;DHT22;11520;51.198;4.468;2022-10-16T07:41:22;15.40;99.90
22706;DHT22;11520;51.198;4.468;2022-10-16T07:43:49;15.90;99.90
22706;DHT22;11520;51.198;4.468;2022-10-16T07:46:19;16.60;99.90
22706;DHT22;11520;51.198;4.468;2022-10-16T07:48:45;17.30;99.90
22706;DHT22;11520;51.198;4.468;2022-10-16T07:51:16;17.80;99.90
22706;DHT22;11520;51.198;4.468;2022-10-16T07:53:48;18.40;99.90
22706;DHT22;11520;51.198;4.468;2022-10-16T07:56:19;18.80;99.90
22706;DHT22;11520;51.198;4.468;2022-10-16T07:58:45;19.40;99.90
22706;DHT22;11520;51.198;4.468;2022-10-16T08:01:14;19.50;99.90
22706;DHT22;11520;51.198;4.468;2022-10-16T08:03:48;20.20;99.90
22706;DHT22;11520;51.198;4.468;2022-10-16T08:06:15;20.40;99.90
22706;DHT22;11520;51.198;4.468;2022-10-16T08:08:40;20.70;99.90
22706;DHT22;11520;51.198;4.468;2022-10-16T08:11:07;21.50;99.90
22706;DHT22;11520;51.198;4.468;2022-10-16T08:13:37;21.80;99.90
22706;DHT22;11520;51.198;4.468;2022-10-16T08:16:04;21.90;99.90
22706;DHT22;11520;51.198;4.468;2022-10-16T08:18:34;22.60;99.90
22706;DHT22;11520;51.198;4.468;2022-10-16T08:21:02;22.80;99.90
22706;DHT22;11520;51.198;4.468;2022-10-16T08:23:29;23.30;99.90
22706;DHT22;11520;51.198;4.468;2022-10-16T08:26:01;23.20;99.90
22706;DHT22;11520;51.198;4.468;2022-10-16T08:28:50;23.80;99.90
22706;DHT22;11520;51.198;4.468;2022-10-16T08:31:36;23.60;99.90
22706;DHT22;11520;51.198;4.468;2022-10-16T08:37:24;23.50;99.90
22706;DHT22;11520;51.198;4.468;2022-10-16T08:39:57;23.20;99.90
22706;DHT22;11520;51.198;4.468;2022-10-16T08:48:57;25.10;99.90
22706;DHT22;11520;51.198;4.468;2022-10-16T08:51:31;26.20;99.90
22706;DHT22;11520;51.198;4.468;2022-10-16T08:57:21;27.20;96.30
22706;DHT22;11520;51.198;4.468;2022-10-16T08:59:51;26.80;96.40
22706;DHT22;11520;51.198;4.468;2022-10-16T09:02:32;26.90;95.80
22706;DHT22;11520;51.198;4.468;2022-10-16T09:05:52;26.50;96.10
22706;DHT22;11520;51.198;4.468;2022-10-16T09:16:51;27.80;93.60
22706;DHT22;11520;51.198;4.468;2022-10-16T09:19:24;29.00;90.60
22706;DHT22;11520;51.198;4.468;2022-10-16T09:21:54;29.80;85.40
22706;DHT22;11520;51.198;4.468;2022-10-16T09:24:24;30.80;80.50
22706;DHT22;11520;51.198;4.468;2022-10-16T09:26:53;30.80;75.80
22706;DHT22;11520;51.198;4.468;2022-10-16T09:29:21;31.30;72.20
22706;DHT22;11520;51.198;4.468;2022-10-16T09:31:52;31.70;67.30
22706;DHT22;11520;51.198;4.468;2022-10-16T09:34:30;31.10;70.70
22706;DHT22;11520;51.198;4.468;2022-10-16T09:37:20;31.20;69.50
22706;DHT22;11520;51.198;4.468;2022-10-16T09:40:02;31.00;69.40
22706;DHT22;11520;51.198;4.468;2022-10-16T09:42:35;31.70;68.50
22706;DHT22;11520;51.198;4.468;2022-10-16T09:45:03;32.00;64.30
22706;DHT22;11520;51.198;4.468;2022-10-16T09:47:39;31.70;65.50
22706;DHT22;11520;51.198;4.468;2022-10-16T09:50:29;31.90;64.50
22706;DHT22;11520;51.198;4.468;2022-10-16T09:53:20;31.70;64.70
22706;DHT22;11520;51.198;4.468;2022-10-16T09:56:06;32.20;63.00
22706;DHT22;11520;51.198;4.468;2022-10-16T09:58:37;32.60;61.00
22706;DHT22;11520;51.198;4.468;2022-10-16T10:01:37;33.00;59.00
22706;DHT22;11520;51.198;4.468;2022-10-16T10:07:21;33.30;58.00
22706;DHT22;11520;51.198;4.468;2022-10-16T10:10:04;33.60;57.90
22706;DHT22;11520;51.198;4.468;2022-10-16T10:12:32;33.20;56.00
22706;DHT22;11520;51.198;4.468;2022-10-16T10:15:15;32.60;57.50
22706;DHT22;11520;51.198;4.468;2022-10-16T10:17:50;32.90;56.90
22706;DHT22;11520;51.198;4.468;2022-10-16T10:20:33;32.30;58.30
22706;DHT22;11520;51.198;4.468;2022-10-16T10:23:35;32.60;57.40
22706;DHT22;11520;51.198;4.468;2022-10-16T10:35:34;33.70;55.20
22706;DHT22;11520;51.198;4.468;2022-10-16T10:46:05;29.60;64.60
22706;DHT22;11520;51.198;4.468;2022-10-16T10:48:56;28.10;70.40
22706;DHT22;11520;51.198;4.468;2022-10-16T10:51:36;27.10;75.90
22706;DHT22;11520;51.198;4.468;2022-10-16T10:54:32;26.50;79.20
22706;DHT22;11520;51.198;4.468;2022-10-16T10:57:22;25.40;84.70
22706;DHT22;11520;51.198;4.468;2022-10-16T11:00:16;26.40;84.40
22706;DHT22;11520;51.198;4.468;2022-10-16T11:11:24;28.90;75.90
22706;DHT22;11520;51.198;4.468;2022-10-16T11:16:50;31.70;61.40
22706;DHT22;11520;51.198;4.468;2022-10-16T11:22:34;31.20;62.40
22706;DHT22;11520;51.198;4.468;2022-10-16T11:30:26;27.70;73.60
22706;DHT22;11520;51.198;4.468;2022-10-16T11:41:45;29.30;62.80
22706;DHT22;11520;51.198;4.468;2022-10-16T11:46:48;29.30;65.00
22706;DHT22;11520;51.198;4.468;2022-10-16T11:49:22;29.50;63.80
22706;DHT22;11520;51.198;4.468;2022-10-16T11:57:50;29.80;62.10
22706;DHT22;11520;51.198;4.468;2022-10-16T12:00:28;30.30;62.00
22706;DHT22;11520;51.198;4.468;2022-10-16T12:08:46;28.30;62.60
22706;DHT22;11520;51.198;4.468;2022-10-16T12:20:12;25.20;83.30
22706;DHT22;11520;51.198;4.468;2022-10-16T12:22:51;25.20;82.00
22706;DHT22;11520;51.198;4.468;2022-10-16T12:25:27;25.80;82.00
22706;DHT22;11520;51.198;4.468;2022-10-16T12:28:21;26.70;78.50
22706;DHT22;11520;51.198;4.468;2022-10-16T12:31:05;26.50;75.10
22706;DHT22;11520;51.198;4.468;2022-10-16T12:33:56;26.40;79.70
22706;DHT22;11520;51.198;4.468;2022-10-16T12:36:34;25.90;78.40
22706;DHT22;11520;51.198;4.468;2022-10-16T12:39:01;26.30;79.20
22706;DHT22;11520;51.198;4.468;2022-10-16T12:41:29;26.20;79.10
22706;DHT22;11520;51.198;4.468;2022-10-16T12:43:56;24.70;84.90
22706;DHT22;11520;51.198;4.468;2022-10-16T12:51:39;23.30;92.70
22706;DHT22;11520;51.198;4.468;2022-10-16T12:54:48;23.80;92.60
22706;DHT22;11520;51.198;4.468;2022-10-16T13:02:57;23.90;92.70
22706;DHT22;11520;51.198;4.468;2022-10-16T13:28:08;21.50;99.90
22706;DHT22;11520;51.198;4.468;2022-10-16T13:30:42;21.40;99.90
22706;DHT22;11520;51.198;4.468;2022-10-16T13:33:19;21.60;99.90
22706;DHT22;11520;51.198;4.468;2022-10-16T13:35:54;21.90;99.90
22706;DHT22;11520;51.198;4.468;2022-10-16T13:38:30;22.20;99.90
22706;DHT22;11520;51.198;4.468;2022-10-16T13:41:13;22.50;99.90
22706;DHT22;11520;51.198;4.468;2022-10-16T13:43:49;22.60;99.80
22706;DHT22;11520;51.198;4.468;2022-10-16T13:46:23;22.50;99.90
22706;DHT22;11520;51.198;4.468;2022-10-16T13:49:00;22.20;99.90
22706;DHT22;11520;51.198;4.468;2022-10-16T13:51:31;21.90;99.30
22706;DHT22;11520;51.198;4.468;2022-10-16T13:53:58;21.80;99.90
22706;DHT22;11520;51.198;4.468;2022-10-16T13:56:27;22.10;99.90
22706;DHT22;11520;51.198;4.468;2022-10-16T13:59:06;21.90;99.90
22706;DHT22;11520;51.198;4.468;2022-10-16T14:01:55;21.80;99.90
22706;DHT22;11520;51.198;4.468;2022-10-16T14:04:23;21.60;99.90
22706;DHT22;11520;51.198;4.468;2022-10-16T14:06:52;21.50;99.90
22706;DHT22;11520;51.198;4.468;2022-10-16T14:09:24;21.40;99.90
22706;DHT22;11520;51.198;4.468;2022-10-16T14:12:07;21.50;99.90
22706;DHT22;11520;51.198;4.468;2022-10-16T14:14:42;21.40;99.90
22706;DHT22;11520;51.198;4.468;2022-10-16T14:17:24;21.30;99.90
22706;DHT22;11520;51.198;4.468;2022-10-16T14:19:55;21.30;99.90
22706;DHT22;11520;51.198;4.468;2022-10-16T14:22:42;21.00;99.90
22706;DHT22;11520;51.198;4.468;2022-10-16T14:25:23;21.00;99.90
22706;DHT22;11520;51.198;4.468;2022-10-16T14:30:35;20.80;99.90
22706;DHT22;11520;51.198;4.468;2022-10-16T14:33:20;20.60;99.90
22706;DHT22;11520;51.198;4.468;2022-10-16T14:36:06;20.40;99.90
22706;DHT22;11520;51.198;4.468;2022-10-16T14:38:59;20.30;99.90
22706;DHT22;11520;51.198;4.468;2022-10-16T14:41:50;20.30;99.90
22706;DHT22;11520;51.198;4.468;2022-10-16T14:44:32;20.10;99.90
22706;DHT22;11520;51.198;4.468;2022-10-16T14:47:09;20.10;99.90
22706;DHT22;11520;51.198;4.468;2022-10-16T14:49:38;20.00;99.90
22706;DHT22;11520;51.198;4.468;2022-10-16T14:52:10;20.00;99.90
22706;DHT22;11520;51.198;4.468;2022-10-16T14:54:39;19.80;99.90
22706;DHT22;11520;51.198;4.468;2022-10-16T14:57:17;19.80;99.90
22706;DHT22;11520;51.198;4.468;2022-10-16T14:59:54;19.90;99.90
22706;DHT22;11520;51.198;4.468;2022-10-16T15:02:33;19.70;99.90
22706;DHT22;11520;51.198;4.468;2022-10-16T15:05:26;19.60;99.90
22706;DHT22;11520;51.198;4.468;2022-10-16T15:08:02;19.50;99.90
22706;DHT22;11520;51.198;4.468;2022-10-16T15:10:47;19.50;99.90
22706;DHT22;11520;51.198;4.468;2022-10-16T15:13:21;19.70;99.90
22706;DHT22;11520;51.198;4.468;2022-10-16T15:15:48;19.70;99.90
22706;DHT22;11520;51.198;4.468;2022-10-16T15:18:18;19.60;99.90
22706;DHT22;11520;51.198;4.468;2022-10-16T15:20:50;19.50;99.90
22706;DHT22;11520;51.198;4.468;2022-10-16T15:23:19;19.40;99.90
22706;DHT22;11520;51.198;4.468;2022-10-16T15:25:53;19.30;99.90
22706;DHT22;11520;51.198;4.468;2022-10-16T15:28:22;19.30;99.90
22706;DHT22;11520;51.198;4.468;2022-10-16T15:30:53;19.40;99.90
22706;DHT22;11520;51.198;4.468;2022-10-16T15:33:28;19.50;99.90
22706;DHT22;11520;51.198;4.468;2022-10-16T15:36:02;19.60;99.90
22706;DHT22;11520;51.198;4.468;2022-10-16T15:38:28;19.40;99.90
22706;DHT22;11520;51.198;4.468;2022-10-16T15:40:55;19.30;99.90
22706;DHT22;11520;51.198;4.468;2022-10-16T15:43:23;19.30;99.90
22706;DHT22;11520;51.198;4.468;2022-10-16T15:46:05;19.30;99.90
22706;DHT22;11520;51.198;4.468;2022-10-16T15:48:32;19.30;99.90
22706;DHT22;11520;51.198;4.468;2022-10-16T15:50:59;19.30;99.90
22706;DHT22;11520;51.198;4.468;2022-10-16T15:53:36;19.30;99.90
22706;DHT22;11520;51.198;4.468;2022-10-16T15:56:05;19.40;99.90
22706;DHT22;11520;51.198;4.468;2022-10-16T15:58:31;19.50;99.90
22706;DHT22;11520;51.198;4.468;2022-10-16T16:00:58;19.50;99.90
22706;DHT22;11520;51.198;4.468;2022-10-16T16:03:26;19.50;99.90
22706;DHT22;11520;51.198;4.468;2022-10-16T16:05:54;19.50;99.90
22706;DHT22;11520;51.198;4.468;2022-10-16T16:08:21;19.50;99.90
22706;DHT22;11520;51.198;4.468;2022-10-16T16:13:48;19.60;99.90
22706;DHT22;11520;51.198;4.468;2022-10-16T16:16:17;19.50;99.90
22706;DHT22;11520;51.198;4.468;2022-10-16T16:18:47;19.50;99.90
22706;DHT22;11520;51.198;4.468;2022-10-16T16:21:22;19.50;99.90
22706;DHT22;11520;51.198;4.468;2022-10-16T16:23:54;19.50;99.90
22706;DHT22;11520;51.198;4.468;2022-10-16T16:26:28;19.50;99.90
22706;DHT22;11520;51.198;4.468;2022-10-16T16:29:26;19.40;99.90
22706;DHT22;11520;51.198;4.468;2022-10-16T16:31:54;19.40;99.90
22706;DHT22;11520;51.198;4.468;2022-10-16T16:34:27;19.40;99.90
22706;DHT22;11520;51.198;4.468;2022-10-16T16:36:56;19.30;99.90
22706;DHT22;11520;51.198;4.468;2022-10-16T16:39:24;19.30;99.90
22706;DHT22;11520;51.198;4.468;2022-10-16T16:41:50;19.40;99.90
22706;DHT22;11520;51.198;4.468;2022-10-16T16:44:16;19.30;99.90
22706;DHT22;11520;51.198;4.468;2022-10-16T16:46:43;19.30;99.90
22706;DHT22;11520;51.198;4.468;2022-10-16T16:49:13;19.20;99.90
22706;DHT22;11520;51.198;4.468;2022-10-16T16:51:39;19.10;99.90
22706;DHT22;11520;51.198;4.468;2022-10-16T16:54:09;19.10;99.90
22706;DHT22;11520;51.198;4.468;2022-10-16T16:56:38;19.10;99.90
22706;DHT22;11520;51.198;4.468;2022-10-16T16:59:05;19.10;99.90
22706;DHT22;11520;51.198;4.468;2022-10-16T17:01:31;18.90;99.90
22706;DHT22;11520;51.198;4.468;2022-10-16T17:04:07;18.90;99.90
22706;DHT22;11520;51.198;4.468;2022-10-16T17:06:33;18.90;99.90
22706;DHT22;11520;51.198;4.468;2022-10-16T17:09:04;18.90;99.90
22706;DHT22;11520;51.198;4.468;2022-10-16T17:11:56;18.70;99.90
22706;DHT22;11520;51.198;4.468;2022-10-16T17:14:28;18.40;99.90
22706;DHT22;11520;51.198;4.468;2022-10-16T17:16:59;18.30;99.90
22706;DHT22;11520;51.198;4.468;2022-10-16T17:19:25;18.30;99.90
22706;DHT22;11520;51.198;4.468;2022-10-16T17:21:53;18.40;99.90
22706;DHT22;11520;51.198;4.468;2022-10-16T17:24:21;18.50;99.90
22706;DHT22;11520;51.198;4.468;2022-10-16T17:26:48;18.50;99.90
22706;DHT22;11520;51.198;4.468;2022-10-16T17:29:15;18.30;99.90
22706;DHT22;11520;51.198;4.468;2022-10-16T17:31:45;18.30;99.90
22706;DHT22;11520;51.198;4.468;2022-10-16T17:34:14;18.20;99.90
22706;DHT22;11520;51.198;4.468;2022-10-16T17:36:41;18.20;99.90
22706;DHT22;11520;51.198;4.468;2022-10-16T17:39:13;18.30;99.90
22706;DHT22;11520;51.198;4.468;2022-10-16T17:41:40;18.30;99.90
22706;DHT22;11520;51.198;4.468;2022-10-16T17:44:29;18.30;99.90
22706;DHT22;11520;51.198;4.468;2022-10-16T17:47:22;18.20;99.90
22706;DHT22;11520;51.198;4.468;2022-10-16T17:50:07;18.20;99.90
22706;DHT22;11520;51.198;4.468;2022-10-16T17:52:34;18.00;99.90
22706;DHT22;11520;51.198;4.468;2022-10-16T17:55:06;18.00;99.90
22706;DHT22;11520;51.198;4.468;2022-10-16T17:57:39;18.00;99.90
22706;DHT22;11520;51.198;4.468;2022-10-16T18:00:08;17.90;99.90
22706;DHT22;11520;51.198;4.468;2022-10-16T18:05:13;17.90;99.90
22706;DHT22;11520;51.198;4.468;2022-10-16T18:07:56;18.00;99.90
22706;DHT22;11520;51.198;4.468;2022-10-16T18:10:22;18.10;99.90
22706;DHT22;11520;51.198;4.468;2022-10-16T18:12:49;18.10;99.90
22706;DHT22;11520;51.198;4.468;2022-10-16T18:15:18;18.00;99.90
22706;DHT22;11520;51.198;4.468;2022-10-16T18:17:44;18.00;99.90
22706;DHT22;11520;51.198;4.468;2022-10-16T18:20:10;17.80;99.90
22706;DHT22;11520;51.198;4.468;2022-10-16T18:23:02;17.80;99.90
22706;DHT22;11520;51.198;4.468;2022-10-16T18:25:48;17.60;99.90
22706;DHT22;11520;51.198;4.468;2022-10-16T18:41:16;17.10;99.90
22706;DHT22;11520;51.198;4.468;2022-10-16T18:44:01;17.10;99.90